Lexington, KY (40502)

1:22 AM EDT on May 25, 2017 (GMT -0400)
The Island Weather | | Change Station
Active Advisory: Flash Flood Watch Active Notice: Flash Flood Watch

Elev 968 ft 38.00 °N, 84.46 °W | Updated 8 seconds ago

Overcast
Overcast
55.9 °F
Feels Like 55.9 °F
N
2.0
Wind Variable Wind from WSW

Today
High -- | Low -- °F
--% Chance of Precip.
Yesterday
High -- | Low -- °F
Precip. -- in
Pressure 29.46 in
Visibility 10.0 miles
Clouds Overcast 900 ft
Dew Point 55 °F
Humidity 98%
Rainfall 0.00 in
Snow Depth Not available.
6:20 AM 8:50 PM
Waning Crescent, 1% visible
METAR KLEX 250454Z 23009KT 10SM OVC009 14/12 A2947 RMK AO2 RAB11E30 CIG 006V012 SLP974 P0000 T01390122 402110139 $
Pressure 29.46 in
Visibility 10.0 miles
Clouds Overcast 900 ft
Dew Point 55 °F
Humidity 98%
Rainfall 0.00 in
Snow Depth Not available.
6:20 AM 8:50 PM
Waning Crescent, 1% visible
METAR KLEX 250454Z 23009KT 10SM OVC009 14/12 A2947 RMK AO2 RAB11E30 CIG 006V012 SLP974 P0000 T01390122 402110139 $

Get Your Daily Forecast Email!

Thanks for signing up!

Be on the lookout for a verification email in your inbox.

You'll start receiving severe weather alerts in your inbox..

×

10-Day Weather Forecast

Almanac

Astronomy

May. 25, 2017 Rise Set
Actual Time
Civil Twilight
Nautical Twilight
Astronomical Twilight
Moon
Length of Visible Light
Length of Day
Tomorrow will be .
, % of the Moon is Illuminated

Today's Extremes

State Highs State Lows

Community

WunderPhotos

Category 6

Welcome to Category 6. This is the collective home for Weather Underground's featured writeups by Dr. Jeff Masters (right), Bob Henson (left), Chris Burt, and other regular contributors.

Nearby

Air Quality

  Air Quality AQ Index Pollutant
Not available.

Snow Depth

Station Depth Elevation

Earthquake Activity

City Distance Mag. Time & Date
Minimum magnitude displayed is 2.5.

Coastal Water Temperatures

Place Temperature

Stations

Nearby Weather Stations

Station Location Temp. Windchill Dew Point Humidity Wind Precip. Elev Updated Type
                   

Watches & Warnings

Flash Flood Watch
Issued: 5:31 PM EDT May. 24, 2017 – National Weather Service

... Flash Flood Watch in effect through Thursday morning...

The National Weather Service in Louisville has issued a

* Flash Flood Watch for portions of southern Indiana and northern
Kentucky

* through Thursday morning

* slow moving thunderstorms producing heavy rain

* areas that are well saturated from recent heavy rainfall may
quickly flood

Precautionary/preparedness actions...

A Flash Flood Watch means that conditions may develop that lead
to flash flooding. Flash flooding is a very dangerous situation.

You should monitor later forecasts and be prepared to take action
should flash flood warnings be issued.



Zt